sensor_id;sensor_type;location;lat;lon;timestamp;temperature;humidity
9810;DHT22;4944;52.514;13.192;2023-04-10T00:01:32;8.90;99.90
9810;DHT22;4944;52.514;13.192;2023-04-10T00:04:00;8.80;99.90
9810;DHT22;4944;52.514;13.192;2023-04-10T00:06:28;8.80;99.90
9810;DHT22;4944;52.514;13.192;2023-04-10T00:08:57;8.80;99.90
9810;DHT22;4944;52.514;13.192;2023-04-10T00:11:24;8.70;99.90
9810;DHT22;4944;52.514;13.192;2023-04-10T00:13:52;8.80;99.90
9810;DHT22;4944;52.514;13.192;2023-04-10T00:16:19;8.80;99.90
9810;DHT22;4944;52.514;13.192;2023-04-10T00:18:46;8.60;99.90
9810;DHT22;4944;52.514;13.192;2023-04-10T00:21:13;8.70;99.90
9810;DHT22;4944;52.514;13.192;2023-04-10T00:23:40;8.60;99.90
9810;DHT22;4944;52.514;13.192;2023-04-10T00:26:08;8.60;99.90
9810;DHT22;4944;52.514;13.192;2023-04-10T00:28:35;8.60;99.90
9810;DHT22;4944;52.514;13.192;2023-04-10T00:31:03;8.50;99.90
9810;DHT22;4944;52.514;13.192;2023-04-10T00:33:30;8.60;99.90
9810;DHT22;4944;52.514;13.192;2023-04-10T00:35:57;8.60;99.90
9810;DHT22;4944;52.514;13.192;2023-04-10T00:38:24;8.50;99.90
9810;DHT22;4944;52.514;13.192;2023-04-10T00:40:50;8.50;99.90
9810;DHT22;4944;52.514;13.192;2023-04-10T00:43:19;8.50;99.90
9810;DHT22;4944;52.514;13.192;2023-04-10T00:45:46;8.50;99.90
9810;DHT22;4944;52.514;13.192;2023-04-10T00:48:14;8.40;99.90
9810;DHT22;4944;52.514;13.192;2023-04-10T00:50:41;8.40;99.90
9810;DHT22;4944;52.514;13.192;2023-04-10T00:53:08;8.40;99.90
9810;DHT22;4944;52.514;13.192;2023-04-10T00:55:35;8.40;99.90
9810;DHT22;4944;52.514;13.192;2023-04-10T00:58:02;8.30;99.90
9810;DHT22;4944;52.514;13.192;2023-04-10T01:00:30;8.30;99.90
9810;DHT22;4944;52.514;13.192;2023-04-10T01:02:57;8.30;99.90
9810;DHT22;4944;52.514;13.192;2023-04-10T01:05:25;8.20;99.90
9810;DHT22;4944;52.514;13.192;2023-04-10T01:08:01;8.20;99.90
9810;DHT22;4944;52.514;13.192;2023-04-10T01:10:35;8.20;99.90
9810;DHT22;4944;52.514;13.192;2023-04-10T01:13:10;8.20;99.90
9810;DHT22;4944;52.514;13.192;2023-04-10T01:15:43;8.30;99.90
9810;DHT22;4944;52.514;13.192;2023-04-10T01:18:18;8.30;99.90
9810;DHT22;4944;52.514;13.192;2023-04-10T01:20:49;8.40;99.90
9810;DHT22;4944;52.514;13.192;2023-04-10T01:23:43;8.40;99.90
9810;DHT22;4944;52.514;13.192;2023-04-10T01:26:14;8.40;99.90
9810;DHT22;4944;52.514;13.192;2023-04-10T01:28:52;8.30;99.90
9810;DHT22;4944;52.514;13.192;2023-04-10T01:31:26;8.30;99.90
9810;DHT22;4944;52.514;13.192;2023-04-10T01:33:59;8.30;99.90
9810;DHT22;4944;52.514;13.192;2023-04-10T01:36:33;8.30;99.90
9810;DHT22;4944;52.514;13.192;2023-04-10T01:39:03;8.20;99.90
9810;DHT22;4944;52.514;13.192;2023-04-10T01:41:30;8.20;99.90
9810;DHT22;4944;52.514;13.192;2023-04-10T01:44:01;8.00;99.90
9810;DHT22;4944;52.514;13.192;2023-04-10T01:46:30;8.00;99.90
9810;DHT22;4944;52.514;13.192;2023-04-10T01:48:59;8.00;99.90
9810;DHT22;4944;52.514;13.192;2023-04-10T01:51:27;8.00;99.90
9810;DHT22;4944;52.514;13.192;2023-04-10T01:53:55;7.90;99.90
9810;DHT22;4944;52.514;13.192;2023-04-10T01:56:22;7.90;99.90
9810;DHT22;4944;52.514;13.192;2023-04-10T01:58:49;8.00;99.90
9810;DHT22;4944;52.514;13.192;2023-04-10T02:01:21;7.90;99.90
9810;DHT22;4944;52.514;13.192;2023-04-10T02:03:48;7.80;99.90
9810;DHT22;4944;52.514;13.192;2023-04-10T02:06:24;7.70;99.90
9810;DHT22;4944;52.514;13.192;2023-04-10T02:08:56;7.70;99.90
9810;DHT22;4944;52.514;13.192;2023-04-10T02:11:31;7.70;99.90
9810;DHT22;4944;52.514;13.192;2023-04-10T02:14:00;7.60;99.90
9810;DHT22;4944;52.514;13.192;2023-04-10T02:16:31;7.60;99.90
9810;DHT22;4944;52.514;13.192;2023-04-10T02:19:00;7.60;99.90
9810;DHT22;4944;52.514;13.192;2023-04-10T02:21:28;7.50;99.90
9810;DHT22;4944;52.514;13.192;2023-04-10T02:23:56;7.60;99.90
9810;DHT22;4944;52.514;13.192;2023-04-10T02:26:24;7.60;99.90
9810;DHT22;4944;52.514;13.192;2023-04-10T02:28:50;7.60;99.90
9810;DHT22;4944;52.514;13.192;2023-04-10T02:31:17;7.60;99.90
9810;DHT22;4944;52.514;13.192;2023-04-10T02:33:45;7.50;99.90
9810;DHT22;4944;52.514;13.192;2023-04-10T02:36:13;7.50;99.90
9810;DHT22;4944;52.514;13.192;2023-04-10T02:38:39;7.50;99.90
9810;DHT22;4944;52.514;13.192;2023-04-10T02:41:06;7.50;99.90
9810;DHT22;4944;52.514;13.192;2023-04-10T02:43:33;7.50;99.90
9810;DHT22;4944;52.514;13.192;2023-04-10T02:46:00;7.50;99.90
9810;DHT22;4944;52.514;13.192;2023-04-10T02:48:27;7.30;99.90
9810;DHT22;4944;52.514;13.192;2023-04-10T02:50:58;7.20;99.90
9810;DHT22;4944;52.514;13.192;2023-04-10T02:53:26;7.10;99.90
9810;DHT22;4944;52.514;13.192;2023-04-10T02:55:53;7.10;99.90
9810;DHT22;4944;52.514;13.192;2023-04-10T02:58:20;7.10;99.90
9810;DHT22;4944;52.514;13.192;2023-04-10T03:00:48;7.10;99.90
9810;DHT22;4944;52.514;13.192;2023-04-10T03:03:15;7.10;99.90
9810;DHT22;4944;52.514;13.192;2023-04-10T03:05:42;7.10;99.90
9810;DHT22;4944;52.514;13.192;2023-04-10T03:08:12;7.00;99.90
9810;DHT22;4944;52.514;13.192;2023-04-10T03:10:41;7.00;99.90
9810;DHT22;4944;52.514;13.192;2023-04-10T03:13:08;7.00;99.90
9810;DHT22;4944;52.514;13.192;2023-04-10T03:15:35;7.00;99.90
9810;DHT22;4944;52.514;13.192;2023-04-10T03:18:02;7.00;99.90
9810;DHT22;4944;52.514;13.192;2023-04-10T03:20:30;7.00;99.90
9810;DHT22;4944;52.514;13.192;2023-04-10T03:22:57;7.00;99.90
9810;DHT22;4944;52.514;13.192;2023-04-10T03:25:25;6.90;99.90
9810;DHT22;4944;52.514;13.192;2023-04-10T03:27:52;6.90;99.90
9810;DHT22;4944;52.514;13.192;2023-04-10T03:30:19;6.90;99.90
9810;DHT22;4944;52.514;13.192;2023-04-10T03:32:46;6.90;99.90
9810;DHT22;4944;52.514;13.192;2023-04-10T03:35:13;6.80;99.90
9810;DHT22;4944;52.514;13.192;2023-04-10T03:37:40;6.90;99.90
9810;DHT22;4944;52.514;13.192;2023-04-10T03:40:09;6.80;99.90
9810;DHT22;4944;52.514;13.192;2023-04-10T03:42:37;6.80;99.90
9810;DHT22;4944;52.514;13.192;2023-04-10T03:45:05;6.80;99.90
9810;DHT22;4944;52.514;13.192;2023-04-10T03:47:33;6.80;99.90
9810;DHT22;4944;52.514;13.192;2023-04-10T03:50:00;6.90;99.90
9810;DHT22;4944;52.514;13.192;2023-04-10T03:52:27;6.90;99.90
9810;DHT22;4944;52.514;13.192;2023-04-10T03:54:54;6.80;99.90
9810;DHT22;4944;52.514;13.192;2023-04-10T03:57:21;6.80;99.90
9810;DHT22;4944;52.514;13.192;2023-04-10T03:59:49;6.70;99.90
9810;DHT22;4944;52.514;13.192;2023-04-10T04:02:16;6.70;99.90
9810;DHT22;4944;52.514;13.192;2023-04-10T04:04:43;6.70;99.90
9810;DHT22;4944;52.514;13.192;2023-04-10T04:07:10;6.60;99.90
9810;DHT22;4944;52.514;13.192;2023-04-10T04:09:38;6.60;99.90
9810;DHT22;4944;52.514;13.192;2023-04-10T04:12:05;6.70;99.90
9810;DHT22;4944;52.514;13.192;2023-04-10T04:14:32;6.70;99.90
9810;DHT22;4944;52.514;13.192;2023-04-10T04:17:00;6.70;99.90
9810;DHT22;4944;52.514;13.192;2023-04-10T04:19:27;6.70;99.90
9810;DHT22;4944;52.514;13.192;2023-04-10T04:21:54;6.70;99.90
9810;DHT22;4944;52.514;13.192;2023-04-10T04:24:22;6.60;99.90
9810;DHT22;4944;52.514;13.192;2023-04-10T04:26:49;6.60;99.90
9810;DHT22;4944;52.514;13.192;2023-04-10T04:29:16;6.70;99.90
9810;DHT22;4944;52.514;13.192;2023-04-10T04:31:42;6.60;99.90
9810;DHT22;4944;52.514;13.192;2023-04-10T04:34:11;6.70;99.90
9810;DHT22;4944;52.514;13.192;2023-04-10T04:36:38;6.60;99.90
9810;DHT22;4944;52.514;13.192;2023-04-10T04:39:05;6.70;99.90
9810;DHT22;4944;52.514;13.192;2023-04-10T04:41:31;6.70;99.90
9810;DHT22;4944;52.514;13.192;2023-04-10T04:44:00;6.70;99.90
9810;DHT22;4944;52.514;13.192;2023-04-10T04:46:26;6.70;99.90
9810;DHT22;4944;52.514;13.192;2023-04-10T04:48:54;6.70;99.90
9810;DHT22;4944;52.514;13.192;2023-04-10T04:51:22;6.70;99.90
9810;DHT22;4944;52.514;13.192;2023-04-10T04:53:49;6.90;99.90
9810;DHT22;4944;52.514;13.192;2023-04-10T04:56:16;7.00;99.90
9810;DHT22;4944;52.514;13.192;2023-04-10T04:58:43;7.10;99.90
9810;DHT22;4944;52.514;13.192;2023-04-10T05:01:09;7.20;99.90
9810;DHT22;4944;52.514;13.192;2023-04-10T05:03:37;7.30;99.90
9810;DHT22;4944;52.514;13.192;2023-04-10T05:06:04;7.30;99.90
9810;DHT22;4944;52.514;13.192;2023-04-10T05:08:32;7.30;99.90
9810;DHT22;4944;52.514;13.192;2023-04-10T05:11:00;7.20;99.90
9810;DHT22;4944;52.514;13.192;2023-04-10T05:13:26;7.20;99.90
9810;DHT22;4944;52.514;13.192;2023-04-10T05:15:53;7.10;99.90
9810;DHT22;4944;52.514;13.192;2023-04-10T05:18:20;7.20;99.90
9810;DHT22;4944;52.514;13.192;2023-04-10T05:20:48;7.20;99.90
9810;DHT22;4944;52.514;13.192;2023-04-10T05:23:15;7.20;99.90
9810;DHT22;4944;52.514;13.192;2023-04-10T05:25:44;7.30;99.90
9810;DHT22;4944;52.514;13.192;2023-04-10T05:28:11;7.20;99.90
9810;DHT22;4944;52.514;13.192;2023-04-10T05:30:38;7.30;99.90
9810;DHT22;4944;52.514;13.192;2023-04-10T05:33:04;7.30;99.90
9810;DHT22;4944;52.514;13.192;2023-04-10T05:35:31;7.40;99.90
9810;DHT22;4944;52.514;13.192;2023-04-10T05:37:58;7.30;99.90
9810;DHT22;4944;52.514;13.192;2023-04-10T05:40:26;7.50;99.90
9810;DHT22;4944;52.514;13.192;2023-04-10T05:42:55;7.40;99.90
9810;DHT22;4944;52.514;13.192;2023-04-10T05:45:22;7.40;99.90
9810;DHT22;4944;52.514;13.192;2023-04-10T05:47:49;7.50;99.90
9810;DHT22;4944;52.514;13.192;2023-04-10T05:50:16;7.50;99.90
9810;DHT22;4944;52.514;13.192;2023-04-10T05:52:42;7.50;99.90
9810;DHT22;4944;52.514;13.192;2023-04-10T05:55:11;7.60;99.90
9810;DHT22;4944;52.514;13.192;2023-04-10T05:57:38;7.70;99.90
9810;DHT22;4944;52.514;13.192;2023-04-10T06:00:08;7.80;99.90
9810;DHT22;4944;52.514;13.192;2023-04-10T06:02:35;7.80;99.90
9810;DHT22;4944;52.514;13.192;2023-04-10T06:05:01;7.90;99.90
9810;DHT22;4944;52.514;13.192;2023-04-10T06:07:28;7.90;99.90
9810;DHT22;4944;52.514;13.192;2023-04-10T06:09:57;8.10;99.90
9810;DHT22;4944;52.514;13.192;2023-04-10T06:12:24;8.00;99.90
9810;DHT22;4944;52.514;13.192;2023-04-10T06:14:51;8.10;99.90
9810;DHT22;4944;52.514;13.192;2023-04-10T06:17:19;8.20;99.90
9810;DHT22;4944;52.514;13.192;2023-04-10T06:19:48;8.20;99.90
9810;DHT22;4944;52.514;13.192;2023-04-10T06:22:15;8.30;99.90
9810;DHT22;4944;52.514;13.192;2023-04-10T06:24:42;8.30;99.90
9810;DHT22;4944;52.514;13.192;2023-04-10T06:27:09;8.30;99.90
9810;DHT22;4944;52.514;13.192;2023-04-10T06:29:36;8.40;99.90
9810;DHT22;4944;52.514;13.192;2023-04-10T06:32:04;8.40;99.90
9810;DHT22;4944;52.514;13.192;2023-04-10T06:34:32;8.40;99.90
9810;DHT22;4944;52.514;13.192;2023-04-10T06:36:59;8.50;99.90
9810;DHT22;4944;52.514;13.192;2023-04-10T06:39:26;8.50;99.90
9810;DHT22;4944;52.514;13.192;2023-04-10T06:41:52;8.50;99.90
9810;DHT22;4944;52.514;13.192;2023-04-10T06:44:20;8.50;99.90
9810;DHT22;4944;52.514;13.192;2023-04-10T06:46:47;8.50;99.90
9810;DHT22;4944;52.514;13.192;2023-04-10T06:49:14;8.60;99.90
9810;DHT22;4944;52.514;13.192;2023-04-10T06:51:43;8.60;99.90
9810;DHT22;4944;52.514;13.192;2023-04-10T06:54:12;8.60;99.90
9810;DHT22;4944;52.514;13.192;2023-04-10T06:56:40;8.70;99.90
9810;DHT22;4944;52.514;13.192;2023-04-10T06:59:07;8.70;99.90
9810;DHT22;4944;52.514;13.192;2023-04-10T07:01:33;8.70;99.90
9810;DHT22;4944;52.514;13.192;2023-04-10T07:04:01;8.70;99.90
9810;DHT22;4944;52.514;13.192;2023-04-10T07:06:28;8.70;99.90
9810;DHT22;4944;52.514;13.192;2023-04-10T07:08:57;8.70;99.90
9810;DHT22;4944;52.514;13.192;2023-04-10T07:11:27;8.70;99.90
9810;DHT22;4944;52.514;13.192;2023-04-10T07:13:53;8.80;99.90
9810;DHT22;4944;52.514;13.192;2023-04-10T07:16:23;8.80;99.90
9810;DHT22;4944;52.514;13.192;2023-04-10T07:18:50;8.90;99.90
9810;DHT22;4944;52.514;13.192;2023-04-10T07:21:17;8.90;99.90
9810;DHT22;4944;52.514;13.192;2023-04-10T07:23:44;8.90;99.90
9810;DHT22;4944;52.514;13.192;2023-04-10T07:26:13;9.00;99.90
9810;DHT22;4944;52.514;13.192;2023-04-10T07:28:41;9.00;99.90
9810;DHT22;4944;52.514;13.192;2023-04-10T07:31:08;9.10;99.90
9810;DHT22;4944;52.514;13.192;2023-04-10T07:33:35;9.10;99.90
9810;DHT22;4944;52.514;13.192;2023-04-10T07:36:03;9.20;99.90
9810;DHT22;4944;52.514;13.192;2023-04-10T07:38:33;9.20;99.90
9810;DHT22;4944;52.514;13.192;2023-04-10T07:41:01;9.30;99.90
9810;DHT22;4944;52.514;13.192;2023-04-10T07:43:29;9.30;99.90
9810;DHT22;4944;52.514;13.192;2023-04-10T07:46:02;9.40;99.90
9810;DHT22;4944;52.514;13.192;2023-04-10T07:48:30;9.50;99.90
9810;DHT22;4944;52.514;13.192;2023-04-10T07:50:59;9.50;99.90
9810;DHT22;4944;52.514;13.192;2023-04-10T07:53:26;9.60;99.90
9810;DHT22;4944;52.514;13.192;2023-04-10T07:55:53;9.60;99.90
9810;DHT22;4944;52.514;13.192;2023-04-10T07:58:20;9.70;99.90
9810;DHT22;4944;52.514;13.192;2023-04-10T08:00:49;9.70;99.90
9810;DHT22;4944;52.514;13.192;2023-04-10T08:03:17;9.80;99.90
9810;DHT22;4944;52.514;13.192;2023-04-10T08:05:47;9.90;99.90
9810;DHT22;4944;52.514;13.192;2023-04-10T08:08:18;9.80;99.90
9810;DHT22;4944;52.514;13.192;2023-04-10T08:10:46;10.00;99.90
9810;DHT22;4944;52.514;13.192;2023-04-10T08:13:13;10.10;99.90
9810;DHT22;4944;52.514;13.192;2023-04-10T08:15:40;10.10;99.90
9810;DHT22;4944;52.514;13.192;2023-04-10T08:18:09;10.20;99.90
9810;DHT22;4944;52.514;13.192;2023-04-10T08:20:39;10.30;99.90
9810;DHT22;4944;52.514;13.192;2023-04-10T08:23:06;10.40;99.90
9810;DHT22;4944;52.514;13.192;2023-04-10T08:25:33;10.40;99.90
9810;DHT22;4944;52.514;13.192;2023-04-10T08:28:00;10.50;99.90
9810;DHT22;4944;52.514;13.192;2023-04-10T08:30:27;10.60;99.90
9810;DHT22;4944;52.514;13.192;2023-04-10T08:32:54;10.70;99.90
9810;DHT22;4944;52.514;13.192;2023-04-10T08:35:22;10.70;99.90
9810;DHT22;4944;52.514;13.192;2023-04-10T08:37:49;10.80;99.90
9810;DHT22;4944;52.514;13.192;2023-04-10T08:40:16;10.90;99.90
9810;DHT22;4944;52.514;13.192;2023-04-10T08:42:43;11.00;99.90
9810;DHT22;4944;52.514;13.192;2023-04-10T08:45:10;11.00;99.90
9810;DHT22;4944;52.514;13.192;2023-04-10T08:47:37;11.10;99.90
9810;DHT22;4944;52.514;13.192;2023-04-10T08:50:10;11.10;99.90
9810;DHT22;4944;52.514;13.192;2023-04-10T08:52:42;11.10;99.90
9810;DHT22;4944;52.514;13.192;2023-04-10T08:55:12;11.20;99.90
9810;DHT22;4944;52.514;13.192;2023-04-10T08:57:39;11.30;99.90
9810;DHT22;4944;52.514;13.192;2023-04-10T09:00:10;11.40;99.90
9810;DHT22;4944;52.514;13.192;2023-04-10T09:02:37;11.50;99.90
9810;DHT22;4944;52.514;13.192;2023-04-10T09:05:10;11.50;99.90
9810;DHT22;4944;52.514;13.192;2023-04-10T09:07:37;11.70;99.90
9810;DHT22;4944;52.514;13.192;2023-04-10T09:10:06;11.70;99.90
9810;DHT22;4944;52.514;13.192;2023-04-10T09:12:44;11.70;99.90
9810;DHT22;4944;52.514;13.192;2023-04-10T09:15:12;11.90;99.90
9810;DHT22;4944;52.514;13.192;2023-04-10T09:17:57;11.90;99.90
9810;DHT22;4944;52.514;13.192;2023-04-10T09:20:25;11.90;99.90
9810;DHT22;4944;52.514;13.192;2023-04-10T09:22:52;12.00;99.90
9810;DHT22;4944;52.514;13.192;2023-04-10T09:25:36;12.00;99.90
9810;DHT22;4944;52.514;13.192;2023-04-10T09:28:04;12.10;99.90
9810;DHT22;4944;52.514;13.192;2023-04-10T09:30:35;12.20;99.90
9810;DHT22;4944;52.514;13.192;2023-04-10T09:33:20;12.30;99.90
9810;DHT22;4944;52.514;13.192;2023-04-10T09:35:48;12.40;99.90
9810;DHT22;4944;52.514;13.192;2023-04-10T09:38:16;12.50;99.90
9810;DHT22;4944;52.514;13.192;2023-04-10T09:40:45;12.60;99.90
9810;DHT22;4944;52.514;13.192;2023-04-10T09:43:17;12.50;99.90
9810;DHT22;4944;52.514;13.192;2023-04-10T09:45:48;12.60;99.90
9810;DHT22;4944;52.514;13.192;2023-04-10T09:48:16;12.80;99.90
9810;DHT22;4944;52.514;13.192;2023-04-10T09:50:43;12.80;99.90
9810;DHT22;4944;52.514;13.192;2023-04-10T09:53:12;12.80;99.90
9810;DHT22;4944;52.514;13.192;2023-04-10T09:55:40;12.90;99.90
9810;DHT22;4944;52.514;13.192;2023-04-10T09:58:09;13.00;99.90
9810;DHT22;4944;52.514;13.192;2023-04-10T10:00:39;13.00;99.90
9810;DHT22;4944;52.514;13.192;2023-04-10T10:03:08;13.10;99.90
9810;DHT22;4944;52.514;13.192;2023-04-10T10:05:40;13.10;99.90
9810;DHT22;4944;52.514;13.192;2023-04-10T10:08:09;13.20;99.90
9810;DHT22;4944;52.514;13.192;2023-04-10T10:10:39;13.20;99.90
9810;DHT22;4944;52.514;13.192;2023-04-10T10:13:09;13.30;99.90
9810;DHT22;4944;52.514;13.192;2023-04-10T10:15:41;13.30;99.90
9810;DHT22;4944;52.514;13.192;2023-04-10T10:18:19;13.40;99.90
9810;DHT22;4944;52.514;13.192;2023-04-10T10:20:49;13.40;99.90
9810;DHT22;4944;52.514;13.192;2023-04-10T10:23:16;13.50;99.90
9810;DHT22;4944;52.514;13.192;2023-04-10T10:25:45;13.50;99.90
9810;DHT22;4944;52.514;13.192;2023-04-10T10:28:13;13.60;99.90
9810;DHT22;4944;52.514;13.192;2023-04-10T10:30:42;13.60;99.90
9810;DHT22;4944;52.514;13.192;2023-04-10T10:33:10;13.70;99.90
9810;DHT22;4944;52.514;13.192;2023-04-10T10:35:38;13.80;99.90
9810;DHT22;4944;52.514;13.192;2023-04-10T10:38:06;13.90;99.90
9810;DHT22;4944;52.514;13.192;2023-04-10T10:40:40;14.00;99.90
9810;DHT22;4944;52.514;13.192;2023-04-10T10:43:15;14.00;99.90
9810;DHT22;4944;52.514;13.192;2023-04-10T10:45:49;14.00;99.90
9810;DHT22;4944;52.514;13.192;2023-04-10T10:48:16;14.10;99.90
9810;DHT22;4944;52.514;13.192;2023-04-10T10:50:50;14.20;99.90
9810;DHT22;4944;52.514;13.192;2023-04-10T10:53:39;14.20;99.90
9810;DHT22;4944;52.514;13.192;2023-04-10T10:56:33;14.40;99.90
9810;DHT22;4944;52.514;13.192;2023-04-10T10:59:04;14.50;99.90
9810;DHT22;4944;52.514;13.192;2023-04-10T11:01:31;14.50;99.90
9810;DHT22;4944;52.514;13.192;2023-04-10T11:03:58;14.60;99.90
9810;DHT22;4944;52.514;13.192;2023-04-10T11:06:47;14.70;99.90
9810;DHT22;4944;52.514;13.192;2023-04-10T11:09:45;14.80;99.90
9810;DHT22;4944;52.514;13.192;2023-04-10T11:12:15;15.00;99.90
9810;DHT22;4944;52.514;13.192;2023-04-10T11:14:44;15.20;99.90
9810;DHT22;4944;52.514;13.192;2023-04-10T11:17:46;15.20;99.90
9810;DHT22;4944;52.514;13.192;2023-04-10T11:20:14;15.20;99.90
9810;DHT22;4944;52.514;13.192;2023-04-10T11:23:08;15.40;99.90
9810;DHT22;4944;52.514;13.192;2023-04-10T11:25:46;15.40;99.90
9810;DHT22;4944;52.514;13.192;2023-04-10T11:28:37;15.40;99.90
9810;DHT22;4944;52.514;13.192;2023-04-10T11:31:19;15.50;99.90
9810;DHT22;4944;52.514;13.192;2023-04-10T11:33:48;15.60;99.90
9810;DHT22;4944;52.514;13.192;2023-04-10T11:36:16;15.70;99.90
9810;DHT22;4944;52.514;13.192;2023-04-10T11:38:56;15.80;99.90
9810;DHT22;4944;52.514;13.192;2023-04-10T11:41:28;15.80;99.90
9810;DHT22;4944;52.514;13.192;2023-04-10T11:43:56;15.90;99.90
9810;DHT22;4944;52.514;13.192;2023-04-10T11:46:25;15.80;99.90
9810;DHT22;4944;52.514;13.192;2023-04-10T11:48:52;15.70;99.90
9810;DHT22;4944;52.514;13.192;2023-04-10T11:51:19;15.70;99.90
9810;DHT22;4944;52.514;13.192;2023-04-10T11:53:47;15.90;99.90
9810;DHT22;4944;52.514;13.192;2023-04-10T11:56:18;16.10;99.90
9810;DHT22;4944;52.514;13.192;2023-04-10T11:58:48;16.20;99.90
9810;DHT22;4944;52.514;13.192;2023-04-10T12:01:15;16.20;99.90
9810;DHT22;4944;52.514;13.192;2023-04-10T12:03:47;16.30;99.90
9810;DHT22;4944;52.514;13.192;2023-04-10T12:06:15;16.30;99.90
9810;DHT22;4944;52.514;13.192;2023-04-10T12:08:45;16.40;99.90
9810;DHT22;4944;52.514;13.192;2023-04-10T12:11:16;16.40;99.90
9810;DHT22;4944;52.514;13.192;2023-04-10T12:13:44;16.50;99.90
9810;DHT22;4944;52.514;13.192;2023-04-10T12:16:12;16.50;99.90
9810;DHT22;4944;52.514;13.192;2023-04-10T12:18:39;16.30;99.90
9810;DHT22;4944;52.514;13.192;2023-04-10T12:21:08;16.30;99.90
9810;DHT22;4944;52.514;13.192;2023-04-10T12:23:36;16.40;99.90
9810;DHT22;4944;52.514;13.192;2023-04-10T12:26:10;16.70;99.90
9810;DHT22;4944;52.514;13.192;2023-04-10T12:28:38;17.00;99.90
9810;DHT22;4944;52.514;13.192;2023-04-10T12:31:06;17.20;99.90
9810;DHT22;4944;52.514;13.192;2023-04-10T12:33:33;17.40;99.90
9810;DHT22;4944;52.514;13.192;2023-04-10T12:36:00;17.40;99.90
9810;DHT22;4944;52.514;13.192;2023-04-10T12:38:39;17.50;99.90
9810;DHT22;4944;52.514;13.192;2023-04-10T12:41:07;17.50;99.90
9810;DHT22;4944;52.514;13.192;2023-04-10T12:43:37;17.50;99.90
9810;DHT22;4944;52.514;13.192;2023-04-10T12:46:05;17.60;99.90
9810;DHT22;4944;52.514;13.192;2023-04-10T12:48:32;17.70;99.90
9810;DHT22;4944;52.514;13.192;2023-04-10T12:51:00;17.70;99.90
9810;DHT22;4944;52.514;13.192;2023-04-10T12:53:27;17.80;99.90
9810;DHT22;4944;52.514;13.192;2023-04-10T12:56:03;17.80;99.90
9810;DHT22;4944;52.514;13.192;2023-04-10T12:58:32;17.80;99.90
9810;DHT22;4944;52.514;13.192;2023-04-10T13:01:02;17.90;99.90
9810;DHT22;4944;52.514;13.192;2023-04-10T13:03:30;18.00;99.90
9810;DHT22;4944;52.514;13.192;2023-04-10T13:05:58;18.00;99.90
9810;DHT22;4944;52.514;13.192;2023-04-10T13:08:25;17.90;99.90
9810;DHT22;4944;52.514;13.192;2023-04-10T13:10:52;17.90;99.90
9810;DHT22;4944;52.514;13.192;2023-04-10T13:13:24;18.00;99.90
9810;DHT22;4944;52.514;13.192;2023-04-10T13:15:51;18.00;99.90
9810;DHT22;4944;52.514;13.192;2023-04-10T13:18:20;18.10;99.90
9810;DHT22;4944;52.514;13.192;2023-04-10T13:20:47;18.20;99.90
9810;DHT22;4944;52.514;13.192;2023-04-10T13:23:13;18.30;99.90
9810;DHT22;4944;52.514;13.192;2023-04-10T13:25:40;18.30;99.90
9810;DHT22;4944;52.514;13.192;2023-04-10T13:28:07;18.30;99.90
9810;DHT22;4944;52.514;13.192;2023-04-10T13:30:38;18.30;99.90
9810;DHT22;4944;52.514;13.192;2023-04-10T13:33:06;18.20;99.90
9810;DHT22;4944;52.514;13.192;2023-04-10T13:35:33;18.30;99.90
9810;DHT22;4944;52.514;13.192;2023-04-10T13:38:00;18.30;99.90
9810;DHT22;4944;52.514;13.192;2023-04-10T13:40:27;18.20;99.90
9810;DHT22;4944;52.514;13.192;2023-04-10T13:42:54;18.00;99.90
9810;DHT22;4944;52.514;13.192;2023-04-10T13:45:21;17.90;99.90
9810;DHT22;4944;52.514;13.192;2023-04-10T13:47:49;18.00;99.90
9810;DHT22;4944;52.514;13.192;2023-04-10T13:50:16;18.00;99.90
9810;DHT22;4944;52.514;13.192;2023-04-10T13:52:43;18.00;99.90
9810;DHT22;4944;52.514;13.192;2023-04-10T13:55:10;18.00;99.90
9810;DHT22;4944;52.514;13.192;2023-04-10T13:57:38;18.10;99.90
9810;DHT22;4944;52.514;13.192;2023-04-10T14:00:06;18.10;99.90
9810;DHT22;4944;52.514;13.192;2023-04-10T14:02:34;18.10;99.90
9810;DHT22;4944;52.514;13.192;2023-04-10T14:05:05;18.20;99.90
9810;DHT22;4944;52.514;13.192;2023-04-10T14:07:32;18.00;99.90
9810;DHT22;4944;52.514;13.192;2023-04-10T14:10:00;17.90;99.90
9810;DHT22;4944;52.514;13.192;2023-04-10T14:12:27;17.80;99.90
9810;DHT22;4944;52.514;13.192;2023-04-10T14:14:54;17.90;99.90
9810;DHT22;4944;52.514;13.192;2023-04-10T14:17:21;18.00;99.90
9810;DHT22;4944;52.514;13.192;2023-04-10T14:19:49;17.90;99.90
9810;DHT22;4944;52.514;13.192;2023-04-10T14:22:19;18.10;99.90
9810;DHT22;4944;52.514;13.192;2023-04-10T14:24:46;18.30;99.90
9810;DHT22;4944;52.514;13.192;2023-04-10T14:27:13;18.60;99.90
9810;DHT22;4944;52.514;13.192;2023-04-10T14:29:41;18.80;99.90
9810;DHT22;4944;52.514;13.192;2023-04-10T14:32:08;19.00;99.90
9810;DHT22;4944;52.514;13.192;2023-04-10T14:34:35;19.10;99.80
9810;DHT22;4944;52.514;13.192;2023-04-10T14:37:02;19.20;99.90
9810;DHT22;4944;52.514;13.192;2023-04-10T14:39:30;19.20;99.90
9810;DHT22;4944;52.514;13.192;2023-04-10T14:41:58;19.20;99.30
9810;DHT22;4944;52.514;13.192;2023-04-10T14:44:26;19.10;98.90
9810;DHT22;4944;52.514;13.192;2023-04-10T14:46:53;19.10;98.70
9810;DHT22;4944;52.514;13.192;2023-04-10T14:49:20;19.00;98.70
9810;DHT22;4944;52.514;13.192;2023-04-10T14:51:47;18.90;98.20
9810;DHT22;4944;52.514;13.192;2023-04-10T14:54:14;18.80;98.10
9810;DHT22;4944;52.514;13.192;2023-04-10T14:56:47;18.60;99.20
9810;DHT22;4944;52.514;13.192;2023-04-10T14:59:14;18.30;98.90
9810;DHT22;4944;52.514;13.192;2023-04-10T15:01:41;18.20;99.10
9810;DHT22;4944;52.514;13.192;2023-04-10T15:04:08;18.10;99.00
9810;DHT22;4944;52.514;13.192;2023-04-10T15:06:36;18.10;99.30
9810;DHT22;4944;52.514;13.192;2023-04-10T15:09:03;18.10;99.30
9810;DHT22;4944;52.514;13.192;2023-04-10T15:11:30;18.20;99.00
9810;DHT22;4944;52.514;13.192;2023-04-10T15:13:59;18.20;99.20
9810;DHT22;4944;52.514;13.192;2023-04-10T15:16:26;18.20;99.40
9810;DHT22;4944;52.514;13.192;2023-04-10T15:18:53;18.20;99.20
9810;DHT22;4944;52.514;13.192;2023-04-10T15:21:20;18.20;99.40
9810;DHT22;4944;52.514;13.192;2023-04-10T15:23:47;18.30;99.00
9810;DHT22;4944;52.514;13.192;2023-04-10T15:26:15;18.30;99.30
9810;DHT22;4944;52.514;13.192;2023-04-10T15:28:42;18.20;99.00
9810;DHT22;4944;52.514;13.192;2023-04-10T15:31:10;18.20;99.30
9810;DHT22;4944;52.514;13.192;2023-04-10T15:33:37;18.20;99.90
9810;DHT22;4944;52.514;13.192;2023-04-10T15:36:05;18.20;99.80
9810;DHT22;4944;52.514;13.192;2023-04-10T15:38:33;18.10;99.80
9810;DHT22;4944;52.514;13.192;2023-04-10T15:41:00;18.00;99.70
9810;DHT22;4944;52.514;13.192;2023-04-10T15:43:33;17.80;99.70
9810;DHT22;4944;52.514;13.192;2023-04-10T15:46:00;17.70;99.90
9810;DHT22;4944;52.514;13.192;2023-04-10T15:48:28;17.60;99.90
9810;DHT22;4944;52.514;13.192;2023-04-10T15:50:55;17.50;99.90
9810;DHT22;4944;52.514;13.192;2023-04-10T15:53:23;17.40;99.90
9810;DHT22;4944;52.514;13.192;2023-04-10T15:55:49;17.40;99.90
9810;DHT22;4944;52.514;13.192;2023-04-10T15:58:17;17.50;99.90
9810;DHT22;4944;52.514;13.192;2023-04-10T16:00:44;17.60;99.90
9810;DHT22;4944;52.514;13.192;2023-04-10T16:03:11;17.70;99.90
9810;DHT22;4944;52.514;13.192;2023-04-10T16:05:39;17.80;99.90